PWSweather.com
Personal Weather Stations
Station Observations
IGLOUCES43
GloucesterGB GL2 4YT

GloucesterGB GL2 4YT

Lat: 51.8239925, Lon: -2.2837441000000354

Elevation: 57

Station Type: Davis Vantage Pro2

Latest ConditionsUpdated 4:20:00 AM GMT Friday, Dec 14, 2018
Currently Today's Max Today's Min Today's Average
Temperature 29.6°F-1.3°C 33.9°F1.1°C 29.6°F-1.3°C 32.1°F0.1°C
Dew Point 26.2°F-3.2°C 29.5°F-1.4°C 26.2°F-3.2°C 28.1°F-2.2°C
Winds Calm Calm 3.5 mph -5.6 kmh - - 1.9 mph 3.1 kmh
Wind Gusts 3.0 mph4.8 kmh 9.0 mph14.5 kmh - -
Humidity 87% 90% 83% 85%
Pressure 30.21 in1023.0 mb 30.21 in1023.0 mb 30.16 in1021.3 mb -
Hour Temp Dew Point Humidity Winds Wind Gusts Pressure Precip Precip Rate Daily Precip Total
04:20 AM 29.6°F-1.3°C 26.2°F-3.2°C 87% Calm Calm 3.0 mph4.8 kmh 30.21 in1023.0 mb 0.00 in0.0 mm 0.00 in0.0 mm 0.00 in0.0 mm
04:15 AM 29.7°F-1.3°C 26.3°F-3.2°C 87% Calm Calm -- 30.20 in1022.7 mb 0.00 in0.0 mm 0.00 in0.0 mm 0.00 in0.0 mm
04:10 AM 29.9°F-1.2°C 26.5°F-3.1°C 87% 1.2 mph WNW1.9 kmh WNW 3.0 mph4.8 kmh 30.20 in1022.7 mb 0.00 in0.0 mm 0.00 in0.0 mm 0.00 in0.0 mm
04:05 AM 30.0°F-1.1°C 26.9°F-2.8°C 88% 1.2 mph WNW1.9 kmh WNW 3.0 mph4.8 kmh 30.20 in1022.7 mb 0.00 in0.0 mm 0.00 in0.0 mm 0.00 in0.0 mm
04:00 AM 29.8°F-1.2°C 26.7°F-2.9°C 88% 1.2 mph WNW1.9 kmh WNW 3.0 mph4.8 kmh 30.20 in1022.7 mb 0.00 in0.0 mm 0.00 in0.0 mm 0.00 in0.0 mm
03:55 AM 29.9°F-1.2°C 26.5°F-3.1°C 87% 1.2 mph WNW1.9 kmh WNW 2.0 mph3.2 kmh 30.20 in1022.7 mb 0.00 in0.0 mm 0.00 in0.0 mm 0.00 in0.0 mm
03:50 AM 29.9°F-1.2°C 26.5°F-3.1°C 87% 1.2 mph WNW1.9 kmh WNW 2.0 mph3.2 kmh 30.20 in1022.7 mb 0.00 in0.0 mm 0.00 in0.0 mm 0.00 in0.0 mm
03:45 AM 30.0°F-1.1°C 26.3°F-3.2°C 86% Calm Calm 3.0 mph4.8 kmh 30.20 in1022.7 mb 0.00 in0.0 mm 0.00 in0.0 mm 0.00 in0.0 mm
03:40 AM 30.2°F-1.0°C 26.5°F-3.1°C 86% Calm Calm 3.0 mph4.8 kmh 30.20 in1022.7 mb 0.00 in0.0 mm 0.00 in0.0 mm 0.00 in0.0 mm
03:35 AM 30.5°F-0.8°C 26.5°F-3.1°C 85% 1.2 mph WNW1.9 kmh WNW 2.0 mph3.2 kmh 30.20 in1022.7 mb 0.00 in0.0 mm 0.00 in0.0 mm 0.00 in0.0 mm
03:30 AM 30.7°F-0.7°C 26.7°F-2.9°C 85% 1.2 mph WNW1.9 kmh WNW 3.0 mph4.8 kmh 30.19 in1022.4 mb 0.00 in0.0 mm 0.00 in0.0 mm 0.00 in0.0 mm
03:25 AM 31.0°F-0.6°C 27.0°F-2.8°C 85% Calm Calm 3.0 mph4.8 kmh 30.19 in1022.4 mb 0.00 in0.0 mm 0.00 in0.0 mm 0.00 in0.0 mm
03:20 AM 31.4°F-0.3°C 27.1°F-2.7°C 84% 1.2 mph WNW1.9 kmh WNW 3.0 mph4.8 kmh 30.19 in1022.4 mb 0.00 in0.0 mm 0.00 in0.0 mm 0.00 in0.0 mm
03:15 AM 31.8°F-0.1°C 27.5°F-2.5°C 84% 1.2 mph WNW1.9 kmh WNW 4.0 mph6.4 kmh 30.19 in1022.4 mb 0.00 in0.0 mm 0.00 in0.0 mm 0.00 in0.0 mm
03:10 AM 32.2°F0.1°C 27.6°F-2.4°C 83% 1.2 mph WNW1.9 kmh WNW 4.0 mph6.4 kmh 30.19 in1022.4 mb 0.00 in0.0 mm 0.00 in0.0 mm 0.00 in0.0 mm
03:05 AM 32.6°F0.3°C 28.0°F-2.2°C 83% Calm Calm 4.0 mph6.4 kmh 30.19 in1022.4 mb 0.00 in0.0 mm 0.00 in0.0 mm 0.00 in0.0 mm
03:00 AM 32.6°F0.3°C 28.0°F-2.2°C 83% Calm Calm 2.0 mph3.2 kmh 30.19 in1022.4 mb 0.00 in0.0 mm 0.00 in0.0 mm 0.00 in0.0 mm
02:55 AM 32.8°F0.4°C 28.2°F-2.1°C 83% 1.2 mph ESE1.9 kmh ESE 3.0 mph4.8 kmh 30.19 in1022.4 mb 0.00 in0.0 mm 0.00 in0.0 mm 0.00 in0.0 mm
02:50 AM 32.9°F0.5°C 28.3°F-2.1°C 83% 1.2 mph ESE1.9 kmh ESE 4.0 mph6.4 kmh 30.18 in1022.0 mb 0.00 in0.0 mm 0.00 in0.0 mm 0.00 in0.0 mm
02:45 AM 33.0°F0.6°C 28.4°F-2.0°C 83% 2.4 mph ESE3.9 kmh ESE 4.0 mph6.4 kmh 30.18 in1022.0 mb 0.00 in0.0 mm 0.00 in0.0 mm 0.00 in0.0 mm
02:40 AM 33.2°F0.7°C 28.6°F-1.9°C 83% 1.2 mph ESE1.9 kmh ESE 7.0 mph11.3 kmh 30.18 in1022.0 mb 0.00 in0.0 mm 0.00 in0.0 mm 0.00 in0.0 mm
02:35 AM 33.2°F0.7°C 28.6°F-1.9°C 83% 2.4 mph ESE3.9 kmh ESE 9.0 mph14.5 kmh 30.18 in1022.0 mb 0.00 in0.0 mm 0.00 in0.0 mm 0.00 in0.0 mm
02:30 AM 33.3°F0.7°C 28.7°F-1.8°C 83% 2.4 mph ESE3.9 kmh ESE 9.0 mph14.5 kmh 30.18 in1022.0 mb 0.00 in0.0 mm 0.00 in0.0 mm 0.00 in0.0 mm
02:25 AM 33.5°F0.8°C 28.9°F-1.7°C 83% 2.4 mph ESE3.9 kmh ESE 6.0 mph9.7 kmh 30.18 in1022.0 mb 0.00 in0.0 mm 0.00 in0.0 mm 0.00 in0.0 mm
02:20 AM 33.6°F0.9°C 29.0°F-1.7°C 83% 3.5 mph ESE5.6 kmh ESE 7.0 mph11.3 kmh 30.18 in1022.0 mb 0.00 in0.0 mm 0.00 in0.0 mm 0.00 in0.0 mm
02:15 AM 33.5°F0.8°C 28.9°F-1.7°C 83% 3.5 mph ESE5.6 kmh ESE 7.0 mph11.3 kmh 30.18 in1022.0 mb 0.00 in0.0 mm 0.00 in0.0 mm 0.00 in0.0 mm
02:10 AM 33.5°F0.8°C 28.9°F-1.7°C 83% 2.4 mph ESE3.9 kmh ESE 6.0 mph9.7 kmh 30.18 in1022.0 mb 0.00 in0.0 mm 0.00 in0.0 mm 0.00 in0.0 mm
02:05 AM 33.5°F0.8°C 28.9°F-1.7°C 83% 2.4 mph ESE3.9 kmh ESE 6.0 mph9.7 kmh 30.18 in1022.0 mb 0.00 in0.0 mm 0.00 in0.0 mm 0.00 in0.0 mm
02:00 AM 33.5°F0.8°C 28.9°F-1.7°C 83% 2.4 mph ESE3.9 kmh ESE 7.0 mph11.3 kmh 30.17 in1021.7 mb 0.00 in0.0 mm 0.00 in0.0 mm 0.00 in0.0 mm
01:55 AM 33.6°F0.9°C 29.0°F-1.7°C 83% 2.4 mph ESE3.9 kmh ESE 7.0 mph11.3 kmh 30.17 in1021.7 mb 0.00 in0.0 mm 0.00 in0.0 mm 0.00 in0.0 mm
01:50 AM 33.6°F0.9°C 29.0°F-1.7°C 83% 2.4 mph ESE3.9 kmh ESE 7.0 mph11.3 kmh 30.17 in1021.7 mb 0.00 in0.0 mm 0.00 in0.0 mm 0.00 in0.0 mm
01:45 AM 33.7°F0.9°C 29.1°F-1.6°C 83% 2.4 mph E3.9 kmh E 7.0 mph11.3 kmh 30.17 in1021.7 mb 0.00 in0.0 mm 0.00 in0.0 mm 0.00 in0.0 mm
01:40 AM 33.7°F0.9°C 29.1°F-1.6°C 83% 2.4 mph E3.9 kmh E 7.0 mph11.3 kmh 30.17 in1021.7 mb 0.00 in0.0 mm 0.00 in0.0 mm 0.00 in0.0 mm
01:35 AM 33.7°F0.9°C 29.1°F-1.6°C 83% 3.5 mph ESE5.6 kmh ESE 7.0 mph11.3 kmh 30.17 in1021.7 mb 0.00 in0.0 mm 0.00 in0.0 mm 0.00 in0.0 mm
01:30 AM 33.8°F1.0°C 29.2°F-1.6°C 83% 2.4 mph ESE3.9 kmh ESE 7.0 mph11.3 kmh 30.17 in1021.7 mb 0.00 in0.0 mm 0.00 in0.0 mm 0.00 in0.0 mm
01:25 AM 33.8°F1.0°C 29.2°F-1.6°C 83% 2.4 mph ESE3.9 kmh ESE 7.0 mph11.3 kmh 30.17 in1021.7 mb 0.00 in0.0 mm 0.00 in0.0 mm 0.00 in0.0 mm
01:20 AM 33.8°F1.0°C 29.2°F-1.6°C 83% 3.5 mph E5.6 kmh E 7.0 mph11.3 kmh 30.17 in1021.7 mb 0.00 in0.0 mm 0.00 in0.0 mm 0.00 in0.0 mm
01:15 AM 33.9°F1.1°C 29.3°F-1.5°C 83% 3.5 mph E5.6 kmh E 7.0 mph11.3 kmh 30.17 in1021.7 mb 0.00 in0.0 mm 0.00 in0.0 mm 0.00 in0.0 mm
01:10 AM 33.8°F1.0°C 29.2°F-1.6°C 83% 2.4 mph E3.9 kmh E 7.0 mph11.3 kmh 30.16 in1021.3 mb 0.00 in0.0 mm 0.00 in0.0 mm 0.00 in0.0 mm
01:05 AM 33.8°F1.0°C 29.2°F-1.6°C 83% 2.4 mph E3.9 kmh E 6.0 mph9.7 kmh 30.16 in1021.3 mb 0.00 in0.0 mm 0.00 in0.0 mm 0.00 in0.0 mm
01:00 AM 33.8°F1.0°C 29.5°F-1.4°C 84% 3.5 mph E5.6 kmh E 6.0 mph9.7 kmh 30.16 in1021.3 mb 0.00 in0.0 mm 0.00 in0.0 mm 0.00 in0.0 mm
12:55 AM 33.7°F0.9°C 29.4°F-1.4°C 84% 3.5 mph E5.6 kmh E 8.0 mph12.9 kmh 30.16 in1021.3 mb 0.00 in0.0 mm 0.00 in0.0 mm 0.00 in0.0 mm
12:50 AM 33.5°F0.8°C 29.5°F-1.4°C 85% 3.5 mph E5.6 kmh E 8.0 mph12.9 kmh 30.16 in1021.3 mb 0.00 in0.0 mm 0.00 in0.0 mm 0.00 in0.0 mm
12:45 AM 33.3°F0.7°C 29.3°F-1.5°C 85% 2.4 mph E3.9 kmh E 6.0 mph9.7 kmh 30.16 in1021.3 mb 0.00 in0.0 mm 0.00 in0.0 mm 0.00 in0.0 mm
12:40 AM 32.8°F0.4°C 29.1°F-1.6°C 86% 2.4 mph E3.9 kmh E 6.0 mph9.7 kmh 30.16 in1021.3 mb 0.00 in0.0 mm 0.00 in0.0 mm 0.00 in0.0 mm
12:35 AM 32.3°F0.2°C 28.9°F-1.7°C 87% 2.4 mph E3.9 kmh E 6.0 mph9.7 kmh 30.16 in1021.3 mb 0.00 in0.0 mm 0.00 in0.0 mm 0.00 in0.0 mm
12:30 AM 31.8°F-0.1°C 28.9°F-1.7°C 89% 2.4 mph E3.9 kmh E 7.0 mph11.3 kmh 30.16 in1021.3 mb 0.00 in0.0 mm 0.00 in0.0 mm 0.00 in0.0 mm
12:25 AM 30.9°F-0.6°C 28.3°F-2.1°C 90% 2.4 mph E3.9 kmh E 7.0 mph11.3 kmh 30.16 in1021.3 mb 0.00 in0.0 mm 0.00 in0.0 mm 0.00 in0.0 mm
12:20 AM 30.3°F-0.9°C 27.7°F-2.4°C 90% 2.4 mph NE3.9 kmh NE 5.0 mph8.0 kmh 30.16 in1021.3 mb 0.00 in0.0 mm 0.00 in0.0 mm 0.00 in0.0 mm
12:15 AM 29.8°F-1.2°C 27.2°F-2.7°C 90% 2.4 mph NE3.9 kmh NE 5.0 mph8.0 kmh 30.17 in1021.7 mb 0.00 in0.0 mm 0.00 in0.0 mm 0.00 in0.0 mm
12:10 AM 29.6°F-1.3°C 26.8°F-2.9°C 89% 2.4 mph NNE3.9 kmh NNE 5.0 mph8.0 kmh 30.16 in1021.3 mb 0.00 in0.0 mm 0.00 in0.0 mm 0.00 in0.0 mm
12:05 AM 29.6°F-1.3°C 26.8°F-2.9°C 89% 2.4 mph N3.9 kmh N 4.0 mph6.4 kmh 30.17 in1021.7 mb 0.00 in0.0 mm 0.00 in0.0 mm 0.00 in0.0 mm
12:00 AM 29.6°F-1.3°C 26.8°F-2.9°C 89% 1.2 mph N1.9 kmh N 4.0 mph6.4 kmh 30.17 in1021.7 mb 0.00 in0.0 mm 0.00 in0.0 mm 0.00 in0.0 mm